sensor_id;sensor_type;location;lat;lon;timestamp;temperature;humidity
33574;DHT22;20085;50.832;4.392;2022-11-25T00:01:23;12.70;99.90
33574;DHT22;20085;50.832;4.392;2022-11-25T00:03:49;12.70;99.90
33574;DHT22;20085;50.832;4.392;2022-11-25T00:06:18;12.80;99.90
33574;DHT22;20085;50.832;4.392;2022-11-25T00:08:45;12.80;99.90
33574;DHT22;20085;50.832;4.392;2022-11-25T00:11:11;12.80;99.90
33574;DHT22;20085;50.832;4.392;2022-11-25T00:13:37;12.80;99.90
33574;DHT22;20085;50.832;4.392;2022-11-25T00:16:03;12.80;99.90
33574;DHT22;20085;50.832;4.392;2022-11-25T00:18:29;12.90;99.90
33574;DHT22;20085;50.832;4.392;2022-11-25T00:20:55;13.00;99.90
33574;DHT22;20085;50.832;4.392;2022-11-25T00:23:21;13.00;99.90
33574;DHT22;20085;50.832;4.392;2022-11-25T00:25:46;12.90;99.90
33574;DHT22;20085;50.832;4.392;2022-11-25T00:28:11;13.00;99.90
33574;DHT22;20085;50.832;4.392;2022-11-25T00:30:37;12.90;99.90
33574;DHT22;20085;50.832;4.392;2022-11-25T00:33:02;12.90;99.90
33574;DHT22;20085;50.832;4.392;2022-11-25T00:35:28;12.80;99.90
33574;DHT22;20085;50.832;4.392;2022-11-25T00:37:53;12.90;99.90
33574;DHT22;20085;50.832;4.392;2022-11-25T00:40:19;13.00;99.90
33574;DHT22;20085;50.832;4.392;2022-11-25T00:42:45;13.00;99.90
33574;DHT22;20085;50.832;4.392;2022-11-25T00:45:29;12.90;99.90
33574;DHT22;20085;50.832;4.392;2022-11-25T00:47:54;12.70;99.90
33574;DHT22;20085;50.832;4.392;2022-11-25T00:50:20;12.70;99.90
33574;DHT22;20085;50.832;4.392;2022-11-25T00:52:45;12.60;99.90
33574;DHT22;20085;50.832;4.392;2022-11-25T00:55:11;12.50;99.90
33574;DHT22;20085;50.832;4.392;2022-11-25T00:57:36;12.50;99.90
33574;DHT22;20085;50.832;4.392;2022-11-25T01:00:02;12.30;99.90
33574;DHT22;20085;50.832;4.392;2022-11-25T01:02:28;12.30;99.90
33574;DHT22;20085;50.832;4.392;2022-11-25T01:04:53;12.20;99.90
33574;DHT22;20085;50.832;4.392;2022-11-25T01:07:19;12.20;99.90
33574;DHT22;20085;50.832;4.392;2022-11-25T01:09:45;12.20;99.90
33574;DHT22;20085;50.832;4.392;2022-11-25T01:12:11;12.10;99.90
33574;DHT22;20085;50.832;4.392;2022-11-25T01:14:37;12.10;99.90
33574;DHT22;20085;50.832;4.392;2022-11-25T01:17:02;12.00;99.90
33574;DHT22;20085;50.832;4.392;2022-11-25T01:19:28;12.00;99.90
33574;DHT22;20085;50.832;4.392;2022-11-25T01:21:54;11.90;99.90
33574;DHT22;20085;50.832;4.392;2022-11-25T01:24:19;11.80;99.90
33574;DHT22;20085;50.832;4.392;2022-11-25T01:26:45;11.70;99.90
33574;DHT22;20085;50.832;4.392;2022-11-25T01:29:11;11.70;99.90
33574;DHT22;20085;50.832;4.392;2022-11-25T01:31:38;11.70;99.90
33574;DHT22;20085;50.832;4.392;2022-11-25T01:34:04;11.50;99.90
33574;DHT22;20085;50.832;4.392;2022-11-25T01:36:30;11.30;99.90
33574;DHT22;20085;50.832;4.392;2022-11-25T01:38:56;11.30;99.90
33574;DHT22;20085;50.832;4.392;2022-11-25T01:41:23;11.40;99.90
33574;DHT22;20085;50.832;4.392;2022-11-25T01:46:44;11.50;99.90
33574;DHT22;20085;50.832;4.392;2022-11-25T01:49:53;11.60;99.90
33574;DHT22;20085;50.832;4.392;2022-11-25T01:52:05;11.60;99.90
33574;DHT22;20085;50.832;4.392;2022-11-25T01:54:32;11.70;99.90
33574;DHT22;20085;50.832;4.392;2022-11-25T01:57:05;11.70;99.90
33574;DHT22;20085;50.832;4.392;2022-11-25T01:59:31;11.70;99.90
33574;DHT22;20085;50.832;4.392;2022-11-25T02:01:58;11.70;99.90
33574;DHT22;20085;50.832;4.392;2022-11-25T02:04:24;11.70;99.90
33574;DHT22;20085;50.832;4.392;2022-11-25T02:06:52;11.70;99.90
33574;DHT22;20085;50.832;4.392;2022-11-25T02:09:18;11.70;99.90
33574;DHT22;20085;50.832;4.392;2022-11-25T02:11:45;11.80;99.90
33574;DHT22;20085;50.832;4.392;2022-11-25T02:14:12;11.80;99.90
33574;DHT22;20085;50.832;4.392;2022-11-25T02:16:38;11.80;99.90
33574;DHT22;20085;50.832;4.392;2022-11-25T02:19:05;11.80;99.90
33574;DHT22;20085;50.832;4.392;2022-11-25T02:21:39;11.90;99.90
33574;DHT22;20085;50.832;4.392;2022-11-25T02:24:08;11.90;99.90
33574;DHT22;20085;50.832;4.392;2022-11-25T02:26:36;11.90;99.90
33574;DHT22;20085;50.832;4.392;2022-11-25T02:29:01;11.90;99.90
33574;DHT22;20085;50.832;4.392;2022-11-25T02:31:27;11.80;99.90
33574;DHT22;20085;50.832;4.392;2022-11-25T02:33:52;11.90;99.90
33574;DHT22;20085;50.832;4.392;2022-11-25T02:36:19;11.90;99.90
33574;DHT22;20085;50.832;4.392;2022-11-25T02:38:55;11.90;99.90
33574;DHT22;20085;50.832;4.392;2022-11-25T02:44:15;11.90;99.90
33574;DHT22;20085;50.832;4.392;2022-11-25T02:46:41;11.90;99.90
33574;DHT22;20085;50.832;4.392;2022-11-25T02:49:06;11.90;99.90
33574;DHT22;20085;50.832;4.392;2022-11-25T02:51:32;11.80;99.90
33574;DHT22;20085;50.832;4.392;2022-11-25T02:53:58;11.80;99.90
33574;DHT22;20085;50.832;4.392;2022-11-25T02:56:25;11.80;99.90
33574;DHT22;20085;50.832;4.392;2022-11-25T02:58:50;11.90;99.90
33574;DHT22;20085;50.832;4.392;2022-11-25T03:01:16;11.80;99.90
33574;DHT22;20085;50.832;4.392;2022-11-25T03:03:42;11.80;99.90
33574;DHT22;20085;50.832;4.392;2022-11-25T03:06:07;11.70;99.90
33574;DHT22;20085;50.832;4.392;2022-11-25T03:08:33;11.70;99.90
33574;DHT22;20085;50.832;4.392;2022-11-25T03:10:59;11.70;99.90
33574;DHT22;20085;50.832;4.392;2022-11-25T03:13:24;11.70;99.90
33574;DHT22;20085;50.832;4.392;2022-11-25T03:15:50;11.70;99.90
33574;DHT22;20085;50.832;4.392;2022-11-25T03:18:15;11.70;99.90
33574;DHT22;20085;50.832;4.392;2022-11-25T03:20:41;11.60;99.90
33574;DHT22;20085;50.832;4.392;2022-11-25T03:23:06;11.60;99.90
33574;DHT22;20085;50.832;4.392;2022-11-25T03:25:32;11.60;99.90
33574;DHT22;20085;50.832;4.392;2022-11-25T03:27:58;11.60;99.90
33574;DHT22;20085;50.832;4.392;2022-11-25T03:30:25;11.70;99.90
33574;DHT22;20085;50.832;4.392;2022-11-25T03:32:51;11.60;99.90
33574;DHT22;20085;50.832;4.392;2022-11-25T03:35:16;11.60;99.90
33574;DHT22;20085;50.832;4.392;2022-11-25T03:37:42;11.60;99.90
33574;DHT22;20085;50.832;4.392;2022-11-25T03:40:08;11.60;99.90
33574;DHT22;20085;50.832;4.392;2022-11-25T03:42:34;11.60;99.90
33574;DHT22;20085;50.832;4.392;2022-11-25T03:45:00;11.60;99.90
33574;DHT22;20085;50.832;4.392;2022-11-25T03:47:26;11.60;99.90
33574;DHT22;20085;50.832;4.392;2022-11-25T03:49:51;11.60;99.90
33574;DHT22;20085;50.832;4.392;2022-11-25T03:52:17;11.60;99.90
33574;DHT22;20085;50.832;4.392;2022-11-25T03:54:42;11.60;99.90
33574;DHT22;20085;50.832;4.392;2022-11-25T03:57:08;11.50;99.90
33574;DHT22;20085;50.832;4.392;2022-11-25T03:59:33;11.50;99.90
33574;DHT22;20085;50.832;4.392;2022-11-25T04:01:59;11.50;99.90
33574;DHT22;20085;50.832;4.392;2022-11-25T04:04:24;11.50;99.90
33574;DHT22;20085;50.832;4.392;2022-11-25T04:06:50;11.50;99.90
33574;DHT22;20085;50.832;4.392;2022-11-25T04:09:15;11.50;99.90
33574;DHT22;20085;50.832;4.392;2022-11-25T04:11:41;11.50;99.90
33574;DHT22;20085;50.832;4.392;2022-11-25T04:14:25;11.50;99.90
33574;DHT22;20085;50.832;4.392;2022-11-25T04:16:51;11.50;99.90
33574;DHT22;20085;50.832;4.392;2022-11-25T04:19:17;11.40;99.90
33574;DHT22;20085;50.832;4.392;2022-11-25T04:21:42;11.40;99.90
33574;DHT22;20085;50.832;4.392;2022-11-25T04:24:08;11.40;99.90
33574;DHT22;20085;50.832;4.392;2022-11-25T04:26:34;11.30;99.90
33574;DHT22;20085;50.832;4.392;2022-11-25T04:28:59;11.30;99.90
33574;DHT22;20085;50.832;4.392;2022-11-25T04:31:25;11.40;99.90
33574;DHT22;20085;50.832;4.392;2022-11-25T04:33:50;11.30;99.90
33574;DHT22;20085;50.832;4.392;2022-11-25T04:36:16;11.30;99.90
33574;DHT22;20085;50.832;4.392;2022-11-25T04:38:41;11.30;99.90
33574;DHT22;20085;50.832;4.392;2022-11-25T04:41:07;11.40;99.90
33574;DHT22;20085;50.832;4.392;2022-11-25T04:43:32;11.30;99.90
33574;DHT22;20085;50.832;4.392;2022-11-25T04:45:58;11.30;99.90
33574;DHT22;20085;50.832;4.392;2022-11-25T04:48:23;11.30;99.90
33574;DHT22;20085;50.832;4.392;2022-11-25T04:50:49;11.30;99.90
33574;DHT22;20085;50.832;4.392;2022-11-25T04:53:14;11.30;99.90
33574;DHT22;20085;50.832;4.392;2022-11-25T04:55:40;11.30;99.90
33574;DHT22;20085;50.832;4.392;2022-11-25T04:58:06;11.40;99.90
33574;DHT22;20085;50.832;4.392;2022-11-25T05:00:31;11.30;99.90
33574;DHT22;20085;50.832;4.392;2022-11-25T05:02:56;11.50;99.90
33574;DHT22;20085;50.832;4.392;2022-11-25T05:05:24;11.40;99.90
33574;DHT22;20085;50.832;4.392;2022-11-25T05:07:49;11.40;99.90
33574;DHT22;20085;50.832;4.392;2022-11-25T05:10:15;11.40;99.90
33574;DHT22;20085;50.832;4.392;2022-11-25T05:12:40;11.40;99.90
33574;DHT22;20085;50.832;4.392;2022-11-25T05:15:06;11.40;99.90
33574;DHT22;20085;50.832;4.392;2022-11-25T05:17:32;11.40;99.90
33574;DHT22;20085;50.832;4.392;2022-11-25T05:19:57;11.40;99.90
33574;DHT22;20085;50.832;4.392;2022-11-25T05:22:27;11.50;99.90
33574;DHT22;20085;50.832;4.392;2022-11-25T05:24:53;11.40;99.90
33574;DHT22;20085;50.832;4.392;2022-11-25T05:27:18;11.40;99.90
33574;DHT22;20085;50.832;4.392;2022-11-25T05:29:44;11.40;99.90
33574;DHT22;20085;50.832;4.392;2022-11-25T05:32:09;11.40;99.90
33574;DHT22;20085;50.832;4.392;2022-11-25T05:34:35;11.40;99.90
33574;DHT22;20085;50.832;4.392;2022-11-25T05:37:01;11.40;99.90
33574;DHT22;20085;50.832;4.392;2022-11-25T05:39:26;11.40;99.90
33574;DHT22;20085;50.832;4.392;2022-11-25T05:41:52;11.30;99.90
33574;DHT22;20085;50.832;4.392;2022-11-25T05:44:17;11.40;99.90
33574;DHT22;20085;50.832;4.392;2022-11-25T05:46:43;11.40;99.90
33574;DHT22;20085;50.832;4.392;2022-11-25T05:49:11;11.40;99.90
33574;DHT22;20085;50.832;4.392;2022-11-25T05:51:37;11.30;99.90
33574;DHT22;20085;50.832;4.392;2022-11-25T05:54:02;11.20;99.90
33574;DHT22;20085;50.832;4.392;2022-11-25T05:56:28;11.20;99.90
33574;DHT22;20085;50.832;4.392;2022-11-25T05:58:53;11.20;99.90
33574;DHT22;20085;50.832;4.392;2022-11-25T06:01:19;11.10;99.90
33574;DHT22;20085;50.832;4.392;2022-11-25T06:03:45;11.10;99.90
33574;DHT22;20085;50.832;4.392;2022-11-25T06:06:11;11.10;99.90
33574;DHT22;20085;50.832;4.392;2022-11-25T06:08:37;11.10;99.90
33574;DHT22;20085;50.832;4.392;2022-11-25T06:11:06;11.10;99.90
33574;DHT22;20085;50.832;4.392;2022-11-25T06:13:32;11.10;99.90
33574;DHT22;20085;50.832;4.392;2022-11-25T06:15:58;11.10;99.90
33574;DHT22;20085;50.832;4.392;2022-11-25T06:18:24;11.20;99.90
33574;DHT22;20085;50.832;4.392;2022-11-25T06:20:56;11.10;99.90
33574;DHT22;20085;50.832;4.392;2022-11-25T06:23:22;11.10;99.90
33574;DHT22;20085;50.832;4.392;2022-11-25T06:25:48;11.00;99.90
33574;DHT22;20085;50.832;4.392;2022-11-25T06:28:14;11.00;99.90
33574;DHT22;20085;50.832;4.392;2022-11-25T06:30:39;11.00;99.90
33574;DHT22;20085;50.832;4.392;2022-11-25T06:33:05;11.00;99.90
33574;DHT22;20085;50.832;4.392;2022-11-25T06:35:30;11.10;99.90
33574;DHT22;20085;50.832;4.392;2022-11-25T06:37:57;11.10;99.90
33574;DHT22;20085;50.832;4.392;2022-11-25T06:40:23;11.10;99.90
33574;DHT22;20085;50.832;4.392;2022-11-25T06:42:49;11.00;99.90
33574;DHT22;20085;50.832;4.392;2022-11-25T06:45:14;11.10;99.90
33574;DHT22;20085;50.832;4.392;2022-11-25T06:47:40;11.00;99.90
33574;DHT22;20085;50.832;4.392;2022-11-25T06:50:06;11.00;99.90
33574;DHT22;20085;50.832;4.392;2022-11-25T06:52:32;11.00;99.90
33574;DHT22;20085;50.832;4.392;2022-11-25T06:54:57;11.10;99.90
33574;DHT22;20085;50.832;4.392;2022-11-25T06:57:23;11.00;99.90
33574;DHT22;20085;50.832;4.392;2022-11-25T06:59:48;11.00;99.90
33574;DHT22;20085;50.832;4.392;2022-11-25T07:02:15;11.00;99.90
33574;DHT22;20085;50.832;4.392;2022-11-25T07:04:41;10.90;99.90
33574;DHT22;20085;50.832;4.392;2022-11-25T07:07:06;11.00;99.90
33574;DHT22;20085;50.832;4.392;2022-11-25T07:09:32;11.00;99.90
33574;DHT22;20085;50.832;4.392;2022-11-25T07:11:57;10.90;99.90
33574;DHT22;20085;50.832;4.392;2022-11-25T07:14:23;11.00;99.90
33574;DHT22;20085;50.832;4.392;2022-11-25T07:16:48;11.00;99.90
33574;DHT22;20085;50.832;4.392;2022-11-25T07:19:14;10.90;99.90
33574;DHT22;20085;50.832;4.392;2022-11-25T07:21:40;10.90;99.90
33574;DHT22;20085;50.832;4.392;2022-11-25T07:24:08;10.90;99.90
33574;DHT22;20085;50.832;4.392;2022-11-25T07:26:35;10.90;99.90
33574;DHT22;20085;50.832;4.392;2022-11-25T07:29:03;10.90;99.90
33574;DHT22;20085;50.832;4.392;2022-11-25T07:31:30;10.90;99.90
33574;DHT22;20085;50.832;4.392;2022-11-25T07:34:00;10.90;99.90
33574;DHT22;20085;50.832;4.392;2022-11-25T07:36:26;10.90;99.90
33574;DHT22;20085;50.832;4.392;2022-11-25T07:38:52;10.90;99.90
33574;DHT22;20085;50.832;4.392;2022-11-25T07:41:19;10.90;99.90
33574;DHT22;20085;50.832;4.392;2022-11-25T07:43:45;10.80;99.90
33574;DHT22;20085;50.832;4.392;2022-11-25T07:46:12;10.80;99.90
33574;DHT22;20085;50.832;4.392;2022-11-25T07:48:38;10.80;99.90
33574;DHT22;20085;50.832;4.392;2022-11-25T07:51:04;10.80;99.90
33574;DHT22;20085;50.832;4.392;2022-11-25T07:53:29;10.80;99.90
33574;DHT22;20085;50.832;4.392;2022-11-25T07:55:58;10.90;99.90
33574;DHT22;20085;50.832;4.392;2022-11-25T07:58:24;10.90;99.90
33574;DHT22;20085;50.832;4.392;2022-11-25T08:00:49;10.90;99.90
33574;DHT22;20085;50.832;4.392;2022-11-25T08:03:15;10.90;99.90
33574;DHT22;20085;50.832;4.392;2022-11-25T08:05:40;10.90;99.90
33574;DHT22;20085;50.832;4.392;2022-11-25T08:08:06;10.90;99.90
33574;DHT22;20085;50.832;4.392;2022-11-25T08:10:31;10.90;99.90
33574;DHT22;20085;50.832;4.392;2022-11-25T08:12:57;10.80;99.90
33574;DHT22;20085;50.832;4.392;2022-11-25T08:15:22;10.80;99.90
33574;DHT22;20085;50.832;4.392;2022-11-25T08:17:48;10.80;99.90
33574;DHT22;20085;50.832;4.392;2022-11-25T08:20:16;10.80;99.90
33574;DHT22;20085;50.832;4.392;2022-11-25T08:22:42;10.80;99.90
33574;DHT22;20085;50.832;4.392;2022-11-25T08:25:08;10.80;99.90
33574;DHT22;20085;50.832;4.392;2022-11-25T08:27:33;10.80;99.90
33574;DHT22;20085;50.832;4.392;2022-11-25T08:29:59;10.80;99.90
33574;DHT22;20085;50.832;4.392;2022-11-25T08:32:24;10.80;99.90
33574;DHT22;20085;50.832;4.392;2022-11-25T08:34:50;10.90;99.90
33574;DHT22;20085;50.832;4.392;2022-11-25T08:37:15;10.90;99.90
33574;DHT22;20085;50.832;4.392;2022-11-25T08:39:41;10.90;99.90
33574;DHT22;20085;50.832;4.392;2022-11-25T08:42:06;10.80;99.90
33574;DHT22;20085;50.832;4.392;2022-11-25T08:44:32;10.80;99.90
33574;DHT22;20085;50.832;4.392;2022-11-25T08:46:58;10.90;99.90
33574;DHT22;20085;50.832;4.392;2022-11-25T08:49:23;10.90;99.90
33574;DHT22;20085;50.832;4.392;2022-11-25T08:51:51;10.90;99.90
33574;DHT22;20085;50.832;4.392;2022-11-25T08:54:16;11.00;99.90
33574;DHT22;20085;50.832;4.392;2022-11-25T08:56:42;11.00;99.90
33574;DHT22;20085;50.832;4.392;2022-11-25T08:59:08;10.90;99.90
33574;DHT22;20085;50.832;4.392;2022-11-25T09:01:33;11.00;99.90
33574;DHT22;20085;50.832;4.392;2022-11-25T09:04:00;11.00;99.90
33574;DHT22;20085;50.832;4.392;2022-11-25T09:06:26;11.00;99.90
33574;DHT22;20085;50.832;4.392;2022-11-25T09:08:56;10.90;99.90
33574;DHT22;20085;50.832;4.392;2022-11-25T09:11:22;11.00;99.90
33574;DHT22;20085;50.832;4.392;2022-11-25T09:13:47;10.90;99.90
33574;DHT22;20085;50.832;4.392;2022-11-25T09:16:13;10.80;99.90
33574;DHT22;20085;50.832;4.392;2022-11-25T09:18:39;10.80;99.90
33574;DHT22;20085;50.832;4.392;2022-11-25T09:21:08;10.80;99.90
33574;DHT22;20085;50.832;4.392;2022-11-25T09:23:35;10.80;99.90
33574;DHT22;20085;50.832;4.392;2022-11-25T09:26:00;10.90;99.90
33574;DHT22;20085;50.832;4.392;2022-11-25T09:28:26;11.00;99.90
33574;DHT22;20085;50.832;4.392;2022-11-25T09:30:51;10.90;99.90
33574;DHT22;20085;50.832;4.392;2022-11-25T09:33:17;10.90;99.90
33574;DHT22;20085;50.832;4.392;2022-11-25T09:35:43;11.00;99.90
33574;DHT22;20085;50.832;4.392;2022-11-25T09:38:08;11.00;99.90
33574;DHT22;20085;50.832;4.392;2022-11-25T09:43:54;11.00;99.90
33574;DHT22;20085;50.832;4.392;2022-11-25T09:51:33;11.10;99.90
33574;DHT22;20085;50.832;4.392;2022-11-25T09:54:05;11.10;99.90
33574;DHT22;20085;50.832;4.392;2022-11-25T09:56:51;11.10;99.90
33574;DHT22;20085;50.832;4.392;2022-11-25T10:01:59;11.20;99.90
33574;DHT22;20085;50.832;4.392;2022-11-25T10:04:27;11.30;99.90
33574;DHT22;20085;50.832;4.392;2022-11-25T10:06:57;11.30;99.90
33574;DHT22;20085;50.832;4.392;2022-11-25T10:09:26;11.30;99.90
33574;DHT22;20085;50.832;4.392;2022-11-25T10:11:54;11.30;99.90
33574;DHT22;20085;50.832;4.392;2022-11-25T10:16:53;11.40;99.90
33574;DHT22;20085;50.832;4.392;2022-11-25T10:19:42;11.40;99.90
33574;DHT22;20085;50.832;4.392;2022-11-25T10:22:21;11.50;99.90
33574;DHT22;20085;50.832;4.392;2022-11-25T10:24:48;11.50;99.90
33574;DHT22;20085;50.832;4.392;2022-11-25T10:27:17;11.50;99.90
33574;DHT22;20085;50.832;4.392;2022-11-25T10:29:42;11.50;99.90
33574;DHT22;20085;50.832;4.392;2022-11-25T10:34:38;11.60;99.90
33574;DHT22;20085;50.832;4.392;2022-11-25T10:37:10;11.60;99.90
33574;DHT22;20085;50.832;4.392;2022-11-25T10:39:36;11.60;99.90
33574;DHT22;20085;50.832;4.392;2022-11-25T10:42:03;11.60;99.90
33574;DHT22;20085;50.832;4.392;2022-11-25T10:44:32;11.70;99.90
33574;DHT22;20085;50.832;4.392;2022-11-25T10:49:46;11.70;99.90
33574;DHT22;20085;50.832;4.392;2022-11-25T10:52:14;11.80;99.90
33574;DHT22;20085;50.832;4.392;2022-11-25T10:54:54;11.80;99.90
33574;DHT22;20085;50.832;4.392;2022-11-25T10:57:19;11.80;99.90
33574;DHT22;20085;50.832;4.392;2022-11-25T10:59:58;11.70;99.90
33574;DHT22;20085;50.832;4.392;2022-11-25T11:02:27;11.80;99.90
33574;DHT22;20085;50.832;4.392;2022-11-25T11:07:29;11.80;99.90
33574;DHT22;20085;50.832;4.392;2022-11-25T11:10:06;11.80;99.90
33574;DHT22;20085;50.832;4.392;2022-11-25T11:12:37;11.70;99.90
33574;DHT22;20085;50.832;4.392;2022-11-25T11:15:18;11.80;99.90
33574;DHT22;20085;50.832;4.392;2022-11-25T11:17:44;11.80;99.90
33574;DHT22;20085;50.832;4.392;2022-11-25T11:20:29;11.90;99.90
33574;DHT22;20085;50.832;4.392;2022-11-25T11:27:47;11.80;99.90
33574;DHT22;20085;50.832;4.392;2022-11-25T11:30:14;11.90;99.90
33574;DHT22;20085;50.832;4.392;2022-11-25T11:32:41;11.90;99.90
33574;DHT22;20085;50.832;4.392;2022-11-25T11:35:22;11.90;99.90
33574;DHT22;20085;50.832;4.392;2022-11-25T11:37:52;11.90;99.90
33574;DHT22;20085;50.832;4.392;2022-11-25T11:53:34;12.00;99.90
33574;DHT22;20085;50.832;4.392;2022-11-25T12:01:10;12.20;99.90
33574;DHT22;20085;50.832;4.392;2022-11-25T12:03:38;12.20;99.90
33574;DHT22;20085;50.832;4.392;2022-11-25T12:06:05;12.30;99.90
33574;DHT22;20085;50.832;4.392;2022-11-25T12:08:37;12.30;99.90
33574;DHT22;20085;50.832;4.392;2022-11-25T12:11:10;12.30;99.90
33574;DHT22;20085;50.832;4.392;2022-11-25T12:13:52;12.40;99.90
33574;DHT22;20085;50.832;4.392;2022-11-25T12:18:55;12.40;99.90
33574;DHT22;20085;50.832;4.392;2022-11-25T12:24:09;12.60;99.90
33574;DHT22;20085;50.832;4.392;2022-11-25T12:29:04;12.80;99.90
33574;DHT22;20085;50.832;4.392;2022-11-25T12:31:43;12.80;99.90
33574;DHT22;20085;50.832;4.392;2022-11-25T12:36:42;12.90;99.90
33574;DHT22;20085;50.832;4.392;2022-11-25T12:41:49;12.90;99.90
33574;DHT22;20085;50.832;4.392;2022-11-25T12:44:16;12.80;99.90
33574;DHT22;20085;50.832;4.392;2022-11-25T12:46:44;12.80;99.90
33574;DHT22;20085;50.832;4.392;2022-11-25T12:49:14;12.90;99.90
33574;DHT22;20085;50.832;4.392;2022-11-25T12:59:21;12.70;99.90
33574;DHT22;20085;50.832;4.392;2022-11-25T13:07:27;12.80;99.90
33574;DHT22;20085;50.832;4.392;2022-11-25T13:15:25;12.70;99.90
33574;DHT22;20085;50.832;4.392;2022-11-25T13:17:59;12.80;99.90
33574;DHT22;20085;50.832;4.392;2022-11-25T13:25:36;12.60;99.90
33574;DHT22;20085;50.832;4.392;2022-11-25T13:28:02;12.60;99.90
33574;DHT22;20085;50.832;4.392;2022-11-25T13:32:58;12.60;99.90
33574;DHT22;20085;50.832;4.392;2022-11-25T13:38:33;12.70;99.90
33574;DHT22;20085;50.832;4.392;2022-11-25T13:41:03;12.80;99.90
33574;DHT22;20085;50.832;4.392;2022-11-25T13:46:26;12.90;99.90
33574;DHT22;20085;50.832;4.392;2022-11-25T13:48:52;12.90;99.90
33574;DHT22;20085;50.832;4.392;2022-11-25T13:51:20;12.80;99.90
33574;DHT22;20085;50.832;4.392;2022-11-25T13:53:50;12.90;99.90
33574;DHT22;20085;50.832;4.392;2022-11-25T14:01:29;12.90;99.90
33574;DHT22;20085;50.832;4.392;2022-11-25T14:03:55;13.00;99.90
33574;DHT22;20085;50.832;4.392;2022-11-25T14:09:24;12.90;99.90
33574;DHT22;20085;50.832;4.392;2022-11-25T14:17:05;12.80;99.90
33574;DHT22;20085;50.832;4.392;2022-11-25T14:19:44;12.80;99.90
33574;DHT22;20085;50.832;4.392;2022-11-25T14:24:42;12.80;99.90
33574;DHT22;20085;50.832;4.392;2022-11-25T14:27:13;12.80;99.90
33574;DHT22;20085;50.832;4.392;2022-11-25T14:29:52;12.80;99.90
33574;DHT22;20085;50.832;4.392;2022-11-25T14:32:19;12.90;99.90
33574;DHT22;20085;50.832;4.392;2022-11-25T14:34:46;12.90;99.90
33574;DHT22;20085;50.832;4.392;2022-11-25T14:37:15;13.00;99.90
33574;DHT22;20085;50.832;4.392;2022-11-25T14:39:49;12.90;99.90
33574;DHT22;20085;50.832;4.392;2022-11-25T14:42:18;12.80;99.90
33574;DHT22;20085;50.832;4.392;2022-11-25T14:44:46;12.80;99.90
33574;DHT22;20085;50.832;4.392;2022-11-25T14:47:12;12.80;99.90
33574;DHT22;20085;50.832;4.392;2022-11-25T14:49:42;12.80;99.90
33574;DHT22;20085;50.832;4.392;2022-11-25T14:52:07;12.80;99.90
33574;DHT22;20085;50.832;4.392;2022-11-25T14:54:42;12.80;99.90
33574;DHT22;20085;50.832;4.392;2022-11-25T14:57:07;12.80;99.90
33574;DHT22;20085;50.832;4.392;2022-11-25T14:59:33;12.80;99.90
33574;DHT22;20085;50.832;4.392;2022-11-25T15:01:59;12.80;99.90
33574;DHT22;20085;50.832;4.392;2022-11-25T15:04:25;12.90;99.90
33574;DHT22;20085;50.832;4.392;2022-11-25T15:06:52;12.80;99.90
33574;DHT22;20085;50.832;4.392;2022-11-25T15:09:23;12.70;99.90
33574;DHT22;20085;50.832;4.392;2022-11-25T15:11:59;12.80;99.90
33574;DHT22;20085;50.832;4.392;2022-11-25T15:14:30;12.80;99.90
33574;DHT22;20085;50.832;4.392;2022-11-25T15:16:56;12.90;99.90
33574;DHT22;20085;50.832;4.392;2022-11-25T15:19:26;12.80;99.90
33574;DHT22;20085;50.832;4.392;2022-11-25T15:21:56;12.80;99.90
33574;DHT22;20085;50.832;4.392;2022-11-25T15:26:52;12.70;99.90
33574;DHT22;20085;50.832;4.392;2022-11-25T15:29:18;12.70;99.90
33574;DHT22;20085;50.832;4.392;2022-11-25T15:31:44;12.70;99.90
33574;DHT22;20085;50.832;4.392;2022-11-25T15:34:11;12.80;99.90
33574;DHT22;20085;50.832;4.392;2022-11-25T15:36:37;12.70;99.90
33574;DHT22;20085;50.832;4.392;2022-11-25T15:42:06;12.60;99.90
33574;DHT22;20085;50.832;4.392;2022-11-25T15:44:33;12.60;99.90
33574;DHT22;20085;50.832;4.392;2022-11-25T15:47:04;12.70;99.90
33574;DHT22;20085;50.832;4.392;2022-11-25T15:49:31;12.60;99.90
33574;DHT22;20085;50.832;4.392;2022-11-25T15:52:07;12.60;99.90
33574;DHT22;20085;50.832;4.392;2022-11-25T15:54:55;12.60;99.90
33574;DHT22;20085;50.832;4.392;2022-11-25T15:57:32;12.60;99.90
33574;DHT22;20085;50.832;4.392;2022-11-25T16:07:37;12.60;99.90
33574;DHT22;20085;50.832;4.392;2022-11-25T16:10:14;12.70;99.90
33574;DHT22;20085;50.832;4.392;2022-11-25T16:12:40;12.60;99.90
33574;DHT22;20085;50.832;4.392;2022-11-25T16:15:14;12.50;99.90
33574;DHT22;20085;50.832;4.392;2022-11-25T16:17:40;12.50;99.90
33574;DHT22;20085;50.832;4.392;2022-11-25T16:20:16;12.50;99.90
33574;DHT22;20085;50.832;4.392;2022-11-25T16:22:45;12.40;99.90
33574;DHT22;20085;50.832;4.392;2022-11-25T16:25:11;12.40;99.90
33574;DHT22;20085;50.832;4.392;2022-11-25T16:27:40;12.40;99.90
33574;DHT22;20085;50.832;4.392;2022-11-25T16:30:15;12.40;99.90
33574;DHT22;20085;50.832;4.392;2022-11-25T16:32:41;12.40;99.90
33574;DHT22;20085;50.832;4.392;2022-11-25T16:35:16;12.40;99.90
33574;DHT22;20085;50.832;4.392;2022-11-25T16:37:43;12.30;99.90
33574;DHT22;20085;50.832;4.392;2022-11-25T16:40:12;12.30;99.90
33574;DHT22;20085;50.832;4.392;2022-11-25T16:42:38;12.40;99.90
33574;DHT22;20085;50.832;4.392;2022-11-25T16:45:14;12.40;99.90
33574;DHT22;20085;50.832;4.392;2022-11-25T16:47:40;12.40;99.90
33574;DHT22;20085;50.832;4.392;2022-11-25T16:50:15;12.40;99.90
33574;DHT22;20085;50.832;4.392;2022-11-25T16:52:57;12.40;99.90
33574;DHT22;20085;50.832;4.392;2022-11-25T16:55:22;12.40;99.90
33574;DHT22;20085;50.832;4.392;2022-11-25T16:57:48;12.40;99.90
33574;DHT22;20085;50.832;4.392;2022-11-25T17:00:15;12.40;99.90
33574;DHT22;20085;50.832;4.392;2022-11-25T17:02:41;12.40;99.90
33574;DHT22;20085;50.832;4.392;2022-11-25T17:05:16;12.40;99.90
33574;DHT22;20085;50.832;4.392;2022-11-25T17:07:42;12.40;99.90
33574;DHT22;20085;50.832;4.392;2022-11-25T17:10:08;12.30;99.90
33574;DHT22;20085;50.832;4.392;2022-11-25T17:12:34;12.30;99.90
33574;DHT22;20085;50.832;4.392;2022-11-25T17:15:00;12.30;99.90
33574;DHT22;20085;50.832;4.392;2022-11-25T17:17:27;12.20;99.90
33574;DHT22;20085;50.832;4.392;2022-11-25T17:19:53;12.20;99.90
33574;DHT22;20085;50.832;4.392;2022-11-25T17:22:19;12.20;99.90
33574;DHT22;20085;50.832;4.392;2022-11-25T17:24:45;12.20;99.90
33574;DHT22;20085;50.832;4.392;2022-11-25T17:27:24;12.30;99.90
33574;DHT22;20085;50.832;4.392;2022-11-25T17:29:51;12.30;99.90
33574;DHT22;20085;50.832;4.392;2022-11-25T17:32:17;12.30;99.90
33574;DHT22;20085;50.832;4.392;2022-11-25T17:34:42;12.30;99.90
33574;DHT22;20085;50.832;4.392;2022-11-25T17:37:15;12.30;99.90